createdAt,value
2023-05-19T00:00:41.584Z,95458.00
2023-05-19T00:01:41.523Z,95460.00
2023-05-19T00:02:41.652Z,95458.00
2023-05-19T00:03:41.633Z,95460.00
2023-05-19T00:04:41.648Z,95460.00
2023-05-19T00:05:41.751Z,95458.00
2023-05-19T00:06:41.702Z,95460.00
2023-05-19T00:07:41.725Z,95458.00
2023-05-19T00:08:41.745Z,95455.00
2023-05-19T00:09:41.773Z,95455.00
2023-05-19T00:10:41.833Z,95451.00
2023-05-19T00:11:41.908Z,95451.00
2023-05-19T00:12:41.986Z,95455.00
2023-05-19T00:13:41.994Z,95453.00
2023-05-19T00:14:42.003Z,95453.00
2023-05-19T00:15:42.048Z,95453.00
2023-05-19T00:16:42.025Z,95455.00
2023-05-19T00:17:42.139Z,95455.00
2023-05-19T00:18:42.159Z,95455.00
2023-05-19T00:19:42.170Z,95455.00
2023-05-19T00:20:42.249Z,95456.00
2023-05-19T00:21:42.315Z,95455.00
2023-05-19T00:22:42.377Z,95458.00
2023-05-19T00:23:42.436Z,95458.00
2023-05-19T00:24:42.489Z,95458.00
2023-05-19T00:25:42.537Z,95460.00
2023-05-19T00:26:42.651Z,95458.00
2023-05-19T00:27:42.686Z,95458.00
2023-05-19T00:28:42.736Z,95458.00
2023-05-19T00:29:42.833Z,95460.00
2023-05-19T00:30:42.879Z,95456.00
2023-05-19T00:31:42.929Z,95458.00
2023-05-19T00:32:42.997Z,95458.00
2023-05-19T00:33:43.020Z,95458.00
2023-05-19T00:34:43.049Z,95460.00
2023-05-19T00:35:43.201Z,95460.00
2023-05-19T00:36:43.206Z,95460.00
2023-05-19T00:37:43.268Z,95456.00
2023-05-19T00:38:43.299Z,95460.00
2023-05-19T00:39:43.375Z,95458.00
2023-05-19T00:40:43.436Z,95456.00
2023-05-19T00:41:43.458Z,95456.00
2023-05-19T00:42:43.526Z,95455.00
2023-05-19T00:43:43.580Z,95455.00
2023-05-19T00:44:43.640Z,95456.00
2023-05-19T00:45:43.710Z,95455.00
2023-05-19T00:46:43.819Z,95455.00
2023-05-19T00:47:43.854Z,95451.00
2023-05-19T00:48:43.824Z,95453.00
2023-05-19T00:49:43.826Z,95451.00
2023-05-19T00:50:43.874Z,95451.00
2023-05-19T00:51:43.871Z,95449.00
2023-05-19T00:52:43.908Z,95449.00
2023-05-19T00:53:43.974Z,95451.00
2023-05-19T00:54:44.020Z,95447.00
2023-05-19T00:55:44.095Z,95451.00
2023-05-19T00:56:44.140Z,95447.00
2023-05-19T00:57:44.147Z,95445.00
2023-05-19T00:58:44.189Z,95447.00
2023-05-19T00:59:44.236Z,95445.00
2023-05-19T01:00:44.292Z,95443.00
2023-05-19T01:01:44.311Z,95443.00
2023-05-19T01:02:44.390Z,95445.00
2023-05-19T01:03:44.487Z,95447.00
2023-05-19T01:04:44.417Z,95445.00
2023-05-19T01:05:44.454Z,95445.00
2023-05-19T01:06:44.454Z,95447.00
2023-05-19T01:07:44.475Z,95445.00
2023-05-19T01:08:44.454Z,95445.00
2023-05-19T01:09:44.433Z,95447.00
2023-05-19T01:10:44.485Z,95445.00
2023-05-19T01:11:44.563Z,95445.00
2023-05-19T01:12:44.554Z,95447.00
2023-05-19T01:13:44.520Z,95447.00
2023-05-19T01:14:44.514Z,95445.00
2023-05-19T01:15:44.550Z,95445.00
2023-05-19T01:16:44.597Z,95447.00
2023-05-19T01:17:44.540Z,95445.00
2023-05-19T01:18:44.612Z,95447.00
2023-05-19T01:19:44.565Z,95447.00
2023-05-19T01:20:44.568Z,95445.00
2023-05-19T01:21:44.680Z,95447.00
2023-05-19T01:22:44.569Z,95445.00
2023-05-19T01:23:44.577Z,95439.00
2023-05-19T01:24:44.609Z,95441.00
2023-05-19T01:25:44.660Z,95443.00
2023-05-19T01:26:44.605Z,95443.00
2023-05-19T01:27:44.624Z,95443.00
2023-05-19T01:28:44.582Z,95447.00
2023-05-19T01:29:44.574Z,95443.00
2023-05-19T01:30:44.667Z,95443.00
2023-05-19T01:31:44.610Z,95447.00
2023-05-19T01:32:44.609Z,95443.00
2023-05-19T01:33:44.628Z,95443.00
2023-05-19T01:34:44.613Z,95445.00
2023-05-19T01:35:44.623Z,95449.00
2023-05-19T01:36:44.701Z,95443.00
2023-05-19T01:37:44.681Z,95441.00
2023-05-19T01:38:44.686Z,95445.00
2023-05-19T01:39:44.737Z,95445.00
2023-05-19T01:40:44.730Z,95441.00
2023-05-19T01:41:44.725Z,95441.00
2023-05-19T01:42:44.779Z,95441.00
2023-05-19T01:43:44.780Z,95445.00
2023-05-19T01:44:44.745Z,95445.00
2023-05-19T01:45:44.797Z,95439.00
2023-05-19T01:46:44.815Z,95441.00
2023-05-19T01:47:44.841Z,95441.00
2023-05-19T01:48:44.811Z,95443.00
2023-05-19T01:49:44.824Z,95447.00
2023-05-19T01:50:44.829Z,95445.00
2023-05-19T01:51:44.831Z,95449.00
2023-05-19T01:52:44.855Z,95443.00
2023-05-19T01:53:44.867Z,95445.00
2023-05-19T01:54:45.085Z,95443.00
2023-05-19T01:55:44.899Z,95445.00
2023-05-19T01:56:44.883Z,95445.00
2023-05-19T01:57:44.868Z,95443.00
2023-05-19T01:58:44.868Z,95445.00
2023-05-19T01:59:44.902Z,95443.00
2023-05-19T02:00:44.928Z,95443.00
2023-05-19T02:01:45.086Z,95445.00
2023-05-19T02:02:44.987Z,95445.00
2023-05-19T02:03:44.923Z,95447.00
2023-05-19T02:04:45.008Z,95449.00
2023-05-19T02:05:44.937Z,95447.00
2023-05-19T02:06:44.938Z,95449.00
2023-05-19T02:07:45.015Z,95447.00
2023-05-19T02:08:44.920Z,95447.00
2023-05-19T02:09:44.972Z,95449.00
2023-05-19T02:10:45.009Z,95453.00
2023-05-19T02:11:44.994Z,95451.00
2023-05-19T02:12:45.012Z,95451.00
2023-05-19T02:13:44.997Z,95451.00
2023-05-19T02:14:45.031Z,95451.00
2023-05-19T02:15:45.056Z,95451.00
2023-05-19T02:16:45.132Z,95455.00
2023-05-19T02:17:45.120Z,95455.00
2023-05-19T02:18:45.249Z,95453.00
2023-05-19T02:19:45.140Z,95455.00
2023-05-19T02:20:45.184Z,95456.00
2023-05-19T02:21:45.234Z,95453.00
2023-05-19T02:22:45.239Z,95456.00
2023-05-19T02:23:45.316Z,95453.00
2023-05-19T02:24:45.297Z,95455.00
2023-05-19T02:25:45.342Z,95453.00
2023-05-19T02:26:45.386Z,95456.00
2023-05-19T02:27:45.378Z,95453.00
2023-05-19T02:28:45.425Z,95455.00
2023-05-19T02:29:45.430Z,95453.00
2023-05-19T02:30:45.494Z,95456.00
2023-05-19T02:31:45.578Z,95456.00
2023-05-19T02:32:45.567Z,95456.00
2023-05-19T02:33:45.598Z,95458.00
2023-05-19T02:34:45.704Z,95456.00
2023-05-19T02:35:45.673Z,95458.00
2023-05-19T02:36:45.691Z,95458.00
2023-05-19T02:37:45.733Z,95458.00
2023-05-19T02:38:45.788Z,95456.00
2023-05-19T02:39:45.824Z,95455.00
2023-05-19T02:40:45.877Z,95455.00
2023-05-19T02:41:45.911Z,95455.00
2023-05-19T02:42:45.950Z,95453.00
2023-05-19T02:43:46.001Z,95453.00
2023-05-19T02:44:46.026Z,95453.00
2023-05-19T02:45:46.101Z,95449.00
2023-05-19T02:46:46.232Z,95451.00
2023-05-19T02:47:46.318Z,95455.00
2023-05-19T02:48:46.251Z,95451.00
2023-05-19T02:49:46.289Z,95449.00
2023-05-19T02:50:46.371Z,95449.00
2023-05-19T02:51:46.416Z,95447.00
2023-05-19T02:52:46.475Z,95447.00
2023-05-19T02:53:46.475Z,95449.00
2023-05-19T02:54:46.523Z,95447.00
2023-05-19T02:55:46.598Z,95447.00
2023-05-19T02:56:46.594Z,95451.00
2023-05-19T02:57:46.659Z,95451.00
2023-05-19T02:58:46.702Z,95451.00
2023-05-19T02:59:46.777Z,95447.00
2023-05-19T03:00:46.801Z,95447.00
2023-05-19T03:01:46.907Z,95447.00
2023-05-19T03:02:47.073Z,95441.00
2023-05-19T03:03:47.097Z,95443.00
2023-05-19T03:04:47.023Z,95441.00
2023-05-19T03:05:47.110Z,95441.00
2023-05-19T03:06:47.118Z,95439.00
2023-05-19T03:07:47.183Z,95441.00
2023-05-19T03:08:47.235Z,95439.00
2023-05-19T03:09:47.323Z,95435.00
2023-05-19T03:10:47.361Z,95435.00
2023-05-19T03:11:47.425Z,95435.00
2023-05-19T03:12:47.420Z,95435.00
2023-05-19T03:13:47.478Z,95437.00
2023-05-19T03:14:47.565Z,95437.00
2023-05-19T03:15:47.672Z,95435.00
2023-05-19T03:16:47.839Z,95435.00
2023-05-19T03:17:47.833Z,95437.00
2023-05-19T03:18:47.877Z,95435.00
2023-05-19T03:19:47.823Z,95437.00
2023-05-19T03:20:47.904Z,95435.00
2023-05-19T03:21:47.958Z,95433.00
2023-05-19T03:22:48.013Z,95435.00
2023-05-19T03:23:48.059Z,95433.00
2023-05-19T03:24:48.122Z,95435.00
2023-05-19T03:25:48.184Z,95431.00
2023-05-19T03:26:48.221Z,95431.00
2023-05-19T03:27:48.299Z,95433.00
2023-05-19T03:28:48.359Z,95435.00
2023-05-19T03:29:48.431Z,95435.00
2023-05-19T03:30:48.491Z,95437.00
2023-05-19T03:31:48.535Z,95435.00
2023-05-19T03:32:48.684Z,95437.00
2023-05-19T03:33:48.635Z,95437.00
2023-05-19T03:34:48.697Z,95437.00
2023-05-19T03:35:48.779Z,95439.00
2023-05-19T03:36:48.834Z,95437.00
2023-05-19T03:37:48.898Z,95437.00
2023-05-19T03:38:48.963Z,95437.00
2023-05-19T03:39:48.925Z,95437.00
2023-05-19T03:40:49.016Z,95437.00
2023-05-19T03:41:49.064Z,95435.00
2023-05-19T03:42:49.070Z,95435.00
2023-05-19T03:43:49.128Z,95431.00
2023-05-19T03:44:49.173Z,95431.00
2023-05-19T03:45:49.288Z,95433.00
2023-05-19T03:46:49.298Z,95431.00
2023-05-19T03:47:49.379Z,95431.00
2023-05-19T03:48:49.355Z,95431.00
2023-05-19T03:49:49.369Z,95431.00
2023-05-19T03:50:49.388Z,95431.00
2023-05-19T03:51:49.380Z,95431.00
2023-05-19T03:52:49.403Z,95431.00
2023-05-19T03:53:49.428Z,95433.00
2023-05-19T03:54:49.427Z,95431.00
2023-05-19T03:55:49.404Z,95433.00
2023-05-19T03:56:49.463Z,95437.00
2023-05-19T03:57:49.419Z,95437.00
2023-05-19T03:58:49.460Z,95437.00
2023-05-19T03:59:49.492Z,95439.00
2023-05-19T04:00:49.554Z,95443.00
2023-05-19T04:01:49.558Z,95441.00
2023-05-19T04:02:49.725Z,95441.00
2023-05-19T04:03:49.581Z,95441.00
2023-05-19T04:04:49.665Z,95439.00
2023-05-19T04:05:49.597Z,95439.00
2023-05-19T04:06:49.586Z,95435.00
2023-05-19T04:07:49.619Z,95437.00
2023-05-19T04:08:49.610Z,95435.00
2023-05-19T04:09:49.682Z,95435.00
2023-05-19T04:10:49.696Z,95433.00
2023-05-19T04:11:49.690Z,95431.00
2023-05-19T04:12:50.020Z,95433.00
2023-05-19T04:13:49.680Z,95431.00
2023-05-19T04:14:49.690Z,95431.00
2023-05-19T04:15:49.723Z,95433.00
2023-05-19T04:16:49.745Z,95433.00
2023-05-19T04:17:49.735Z,95431.00
2023-05-19T04:18:49.816Z,95431.00
2023-05-19T04:19:49.784Z,95435.00
2023-05-19T04:20:49.851Z,95431.00
2023-05-19T04:21:49.912Z,95433.00
2023-05-19T04:22:49.943Z,95435.00
2023-05-19T04:23:50.027Z,95437.00
2023-05-19T04:24:50.037Z,95439.00
2023-05-19T04:25:50.130Z,95441.00
2023-05-19T04:26:50.144Z,95439.00
2023-05-19T04:27:50.174Z,95439.00
2023-05-19T04:28:50.177Z,95441.00
2023-05-19T04:29:50.197Z,95441.00
2023-05-19T04:30:50.234Z,95441.00
2023-05-19T04:31:50.208Z,95441.00
2023-05-19T04:32:50.291Z,95443.00
2023-05-19T04:33:50.197Z,95441.00
2023-05-19T04:34:50.254Z,95439.00
2023-05-19T04:35:50.331Z,95439.00
2023-05-19T04:36:52.457Z,95443.00
2023-05-19T04:37:50.266Z,95445.00
2023-05-19T04:38:50.245Z,95447.00
2023-05-19T04:39:50.239Z,95447.00
2023-05-19T04:40:50.451Z,95447.00
2023-05-19T04:41:50.249Z,95447.00
2023-05-19T04:42:50.220Z,95447.00
2023-05-19T04:43:50.252Z,95449.00
2023-05-19T04:44:50.201Z,95447.00
2023-05-19T04:45:50.260Z,95453.00
2023-05-19T04:46:50.330Z,95447.00
2023-05-19T04:47:50.203Z,95449.00
2023-05-19T04:48:51.389Z,95449.00
2023-05-19T04:49:50.221Z,95447.00
2023-05-19T04:50:50.190Z,95449.00
2023-05-19T04:51:50.161Z,95447.00
2023-05-19T04:52:50.165Z,95449.00
2023-05-19T04:53:50.158Z,95447.00
2023-05-19T04:54:50.209Z,95449.00
2023-05-19T04:55:50.143Z,95447.00
2023-05-19T04:56:50.129Z,95447.00
2023-05-19T04:57:50.132Z,95449.00
2023-05-19T04:58:50.088Z,95441.00
2023-05-19T04:59:50.065Z,95441.00
2023-05-19T05:02:09.898Z,95443.00
2023-05-19T05:03:09.923Z,95441.00
2023-05-19T05:04:09.904Z,95441.00
2023-05-19T05:05:09.843Z,95445.00
2023-05-19T05:06:09.837Z,95449.00
2023-05-19T05:07:09.794Z,95447.00
2023-05-19T05:08:09.841Z,95449.00
2023-05-19T05:09:09.797Z,95449.00
2023-05-19T05:10:09.821Z,95449.00
2023-05-19T05:11:09.809Z,95443.00
2023-05-19T05:12:09.873Z,95439.00
2023-05-19T05:13:11.735Z,95443.00
2023-05-19T05:14:09.798Z,95443.00
2023-05-19T05:15:09.730Z,95445.00
2023-05-19T05:16:09.851Z,95445.00
2023-05-19T05:17:09.714Z,95445.00
2023-05-19T05:18:09.770Z,95445.00
2023-05-19T05:19:09.800Z,95445.00
2023-05-19T05:20:09.749Z,95445.00
2023-05-19T05:21:09.848Z,95443.00
2023-05-19T05:22:09.834Z,95441.00
2023-05-19T05:23:09.903Z,95441.00
2023-05-19T05:24:09.880Z,95443.00
2023-05-19T05:25:09.920Z,95441.00
2023-05-19T05:26:09.961Z,95441.00
2023-05-19T05:27:09.965Z,95441.00
2023-05-19T05:28:09.967Z,95441.00
2023-05-19T05:29:09.981Z,95443.00
2023-05-19T05:30:09.989Z,95443.00
2023-05-19T05:31:10.098Z,95443.00
2023-05-19T05:32:10.063Z,95443.00
2023-05-19T05:33:10.212Z,95439.00
2023-05-19T05:34:10.120Z,95439.00
2023-05-19T05:35:10.129Z,95439.00
2023-05-19T05:36:10.137Z,95437.00
2023-05-19T05:37:10.198Z,95437.00
2023-05-19T05:38:10.144Z,95433.00
2023-05-19T05:39:10.210Z,95435.00
2023-05-19T05:40:10.250Z,95435.00
2023-05-19T05:41:10.232Z,95435.00
2023-05-19T05:42:10.226Z,95437.00
2023-05-19T05:43:10.284Z,95433.00
2023-05-19T05:44:10.296Z,95431.00
2023-05-19T05:45:10.329Z,95431.00
2023-05-19T05:47:30.304Z,95433.00
2023-05-19T05:48:30.251Z,95433.00
2023-05-19T05:49:30.240Z,95431.00
2023-05-19T05:50:30.220Z,95431.00
2023-05-19T05:51:30.234Z,95431.00
2023-05-19T05:52:30.206Z,95431.00
2023-05-19T05:53:30.215Z,95429.00
2023-05-19T05:54:30.191Z,95427.00
2023-05-19T05:55:30.349Z,95429.00
2023-05-19T05:56:30.183Z,95425.00
2023-05-19T05:57:30.180Z,95429.00
2023-05-19T05:58:30.177Z,95425.00
2023-05-19T05:59:30.165Z,95427.00
2023-05-19T06:00:30.419Z,95429.00
2023-05-19T06:01:30.144Z,95431.00
2023-05-19T06:02:30.235Z,95429.00
2023-05-19T06:03:30.218Z,95429.00
2023-05-19T06:04:30.180Z,95429.00
2023-05-19T06:05:30.293Z,95427.00
2023-05-19T06:06:30.205Z,95431.00
2023-05-19T06:07:30.248Z,95425.00
2023-05-19T06:08:30.260Z,95427.00
2023-05-19T06:09:30.371Z,95427.00
2023-05-19T06:10:30.439Z,95417.00
2023-05-19T06:11:30.364Z,95427.00
2023-05-19T06:12:30.349Z,95425.00
2023-05-19T06:13:30.452Z,95417.00
2023-05-19T06:14:30.427Z,95425.00
2023-05-19T06:15:30.541Z,95425.00
2023-05-19T06:16:30.550Z,95425.00
2023-05-19T06:17:30.523Z,95417.00
2023-05-19T06:18:30.592Z,95431.00
2023-05-19T06:19:30.594Z,95427.00
2023-05-19T06:20:30.731Z,95425.00
2023-05-19T06:21:30.937Z,95431.00
2023-05-19T06:22:30.575Z,95433.00
2023-05-19T06:23:30.639Z,95433.00
2023-05-19T06:24:30.743Z,95433.00
2023-05-19T06:25:30.920Z,95433.00
2023-05-19T06:26:30.854Z,95433.00
2023-05-19T06:27:32.567Z,95437.00
2023-05-19T06:28:30.767Z,95433.00
2023-05-19T06:29:30.763Z,95435.00
2023-05-19T06:30:30.942Z,95431.00
2023-05-19T06:31:30.832Z,95427.00
2023-05-19T06:32:30.827Z,95427.00
2023-05-19T06:33:30.811Z,95425.00
2023-05-19T06:34:30.803Z,95415.00
2023-05-19T06:35:30.890Z,95415.00
2023-05-19T06:36:30.732Z,95415.00
2023-05-19T06:37:30.728Z,95415.00
2023-05-19T06:38:30.724Z,95413.00
2023-05-19T06:39:30.739Z,95415.00
2023-05-19T06:40:30.934Z,95413.00
2023-05-19T06:41:30.745Z,95413.00
2023-05-19T06:42:31.887Z,95415.00
2023-05-19T06:43:30.667Z,95413.00
2023-05-19T06:44:30.669Z,95415.00
2023-05-19T06:45:30.685Z,95415.00
2023-05-19T06:46:30.708Z,95415.00
2023-05-19T06:47:30.767Z,95417.00
2023-05-19T06:48:30.706Z,95425.00
2023-05-19T06:49:31.927Z,95425.00
2023-05-19T06:50:30.685Z,95417.00
2023-05-19T06:51:31.687Z,95415.00
2023-05-19T06:52:30.601Z,95417.00
2023-05-19T06:53:30.631Z,95415.00
2023-05-19T06:54:30.551Z,95415.00
2023-05-19T06:55:30.647Z,95413.00
2023-05-19T06:56:30.632Z,95415.00
2023-05-19T06:57:30.557Z,95415.00
2023-05-19T06:58:30.666Z,95409.00
2023-05-19T06:59:30.555Z,95411.00
2023-05-19T07:00:30.554Z,95405.00
2023-05-19T07:01:30.667Z,95409.00
2023-05-19T07:02:30.643Z,95407.00
2023-05-19T07:03:30.698Z,95407.00
2023-05-19T07:04:30.574Z,95405.00
2023-05-19T07:05:30.503Z,95407.00
2023-05-19T07:06:30.490Z,95407.00
2023-05-19T07:07:30.537Z,95407.00
2023-05-19T07:08:30.485Z,95409.00
2023-05-19T07:09:30.510Z,95407.00
2023-05-19T07:10:30.771Z,95407.00
2023-05-19T07:11:30.494Z,95411.00
2023-05-19T07:12:30.577Z,95405.00
2023-05-19T07:13:30.532Z,95409.00
2023-05-19T07:14:30.445Z,95411.00
2023-05-19T07:15:30.451Z,95409.00
2023-05-19T07:16:30.537Z,95409.00
2023-05-19T07:17:30.479Z,95409.00
2023-05-19T07:18:30.573Z,95409.00
2023-05-19T07:19:30.718Z,95407.00
2023-05-19T07:20:30.854Z,95409.00
2023-05-19T07:21:30.711Z,95409.00
2023-05-19T07:22:30.734Z,95405.00
2023-05-19T07:23:30.818Z,95405.00
2023-05-19T07:24:30.802Z,95407.00
2023-05-19T07:25:30.823Z,95407.00
2023-05-19T07:26:31.204Z,95407.00
2023-05-19T07:27:30.945Z,95405.00
2023-05-19T07:28:30.887Z,95405.00
2023-05-19T07:29:30.964Z,95403.00
2023-05-19T07:30:31.313Z,95400.00
2023-05-19T07:31:31.106Z,95400.00
2023-05-19T07:32:31.108Z,95396.00
2023-05-19T07:33:31.098Z,95396.00
2023-05-19T07:34:31.088Z,95394.00
2023-05-19T07:35:31.107Z,95394.00
2023-05-19T07:36:31.221Z,95390.00
2023-05-19T07:37:31.228Z,95388.00
2023-05-19T07:38:31.273Z,95392.00
2023-05-19T07:39:31.170Z,95388.00
2023-05-19T07:40:31.617Z,95388.00
2023-05-19T07:41:31.223Z,95388.00
2023-05-19T07:42:31.282Z,95388.00
2023-05-19T07:43:31.359Z,95390.00
2023-05-19T07:44:31.452Z,95390.00
2023-05-19T07:45:31.450Z,95386.00
2023-05-19T07:46:31.562Z,95386.00
2023-05-19T07:47:31.543Z,95384.00
2023-05-19T07:48:31.604Z,95382.00
2023-05-19T07:49:31.581Z,95382.00
2023-05-19T07:50:31.747Z,95384.00
2023-05-19T07:51:31.652Z,95382.00
2023-05-19T07:52:31.630Z,95380.00
2023-05-19T07:53:31.695Z,95382.00
2023-05-19T07:54:31.745Z,95378.00
2023-05-19T07:55:31.745Z,95378.00
2023-05-19T07:56:31.798Z,95374.00
2023-05-19T07:57:31.868Z,95376.00
2023-05-19T07:58:31.948Z,95374.00
2023-05-19T07:59:31.982Z,95374.00
2023-05-19T08:00:32.207Z,95374.00
2023-05-19T08:01:32.019Z,95372.00
2023-05-19T08:02:32.134Z,95372.00
2023-05-19T08:03:32.163Z,95372.00
2023-05-19T08:04:31.986Z,95372.00
2023-05-19T08:05:32.535Z,95370.00
2023-05-19T08:06:32.034Z,95370.00
2023-05-19T08:07:32.033Z,95368.00
2023-05-19T08:08:32.015Z,95366.00
2023-05-19T08:09:32.138Z,95368.00
2023-05-19T08:10:32.237Z,95363.00
2023-05-19T08:11:32.174Z,95364.00
2023-05-19T08:12:32.262Z,95364.00
2023-05-19T08:13:32.183Z,95364.00
2023-05-19T08:14:32.298Z,95366.00
2023-05-19T08:15:32.870Z,95366.00
2023-05-19T08:16:32.461Z,95364.00
2023-05-19T08:17:32.564Z,95363.00
2023-05-19T08:18:32.531Z,95363.00
2023-05-19T08:19:32.709Z,95363.00
2023-05-19T08:20:32.936Z,95363.00
2023-05-19T08:21:32.685Z,95363.00
2023-05-19T08:22:32.765Z,95361.00
2023-05-19T08:23:32.795Z,95363.00
2023-05-19T08:24:32.904Z,95361.00
2023-05-19T08:25:32.856Z,95356.00
2023-05-19T08:26:34.121Z,95361.00
2023-05-19T08:27:32.946Z,95358.00
2023-05-19T08:28:32.903Z,95356.00
2023-05-19T08:29:32.990Z,95356.00
2023-05-19T08:30:33.173Z,95355.00
2023-05-19T08:31:33.047Z,95355.00
2023-05-19T08:32:33.204Z,95353.00
2023-05-19T08:33:33.058Z,95349.00
2023-05-19T08:34:33.124Z,95353.00
2023-05-19T08:35:33.067Z,95349.00
2023-05-19T08:36:33.108Z,95347.00
2023-05-19T08:37:34.070Z,95347.00
2023-05-19T08:38:33.268Z,95341.00
2023-05-19T08:39:33.269Z,95341.00
2023-05-19T08:40:33.622Z,95341.00
2023-05-19T08:41:33.424Z,95341.00
2023-05-19T08:42:33.470Z,95341.00
2023-05-19T08:43:33.513Z,95337.00
2023-05-19T08:44:33.560Z,95339.00
2023-05-19T08:45:33.735Z,95341.00
2023-05-19T08:46:33.711Z,95341.00
2023-05-19T08:47:33.834Z,95339.00
2023-05-19T08:48:33.803Z,95337.00
2023-05-19T08:49:33.814Z,95333.00
2023-05-19T08:50:34.052Z,95329.00
2023-05-19T08:51:33.877Z,95329.00
2023-05-19T08:52:33.923Z,95329.00
2023-05-19T08:53:34.752Z,95327.00
2023-05-19T08:54:33.963Z,95321.00
2023-05-19T08:55:34.424Z,95323.00
2023-05-19T08:56:34.015Z,95321.00
2023-05-19T08:57:33.953Z,95321.00
2023-05-19T08:58:34.031Z,95319.00
2023-05-19T08:59:34.043Z,95321.00
2023-05-19T09:00:34.350Z,95319.00
2023-05-19T09:02:34.224Z,95319.00
2023-05-19T09:03:34.203Z,95319.00
2023-05-19T09:04:34.395Z,95315.00
2023-05-19T09:05:34.479Z,95315.00
2023-05-19T09:06:34.179Z,95317.00
2023-05-19T09:07:34.208Z,95317.00
2023-05-19T09:08:34.214Z,95319.00
2023-05-19T09:09:34.341Z,95315.00
2023-05-19T09:10:34.363Z,95315.00
2023-05-19T09:11:34.408Z,95315.00
2023-05-19T09:12:34.473Z,95313.00
2023-05-19T09:13:34.537Z,95311.00
2023-05-19T09:14:34.534Z,95311.00
2023-05-19T09:15:34.925Z,95308.00
2023-05-19T09:16:34.602Z,95308.00
2023-05-19T09:17:34.615Z,95308.00
2023-05-19T09:18:34.702Z,95309.00
2023-05-19T09:19:34.776Z,95304.00
2023-05-19T09:20:34.675Z,95304.00
2023-05-19T09:21:34.708Z,95304.00
2023-05-19T09:22:34.703Z,95306.00
2023-05-19T09:23:34.720Z,95298.00
2023-05-19T09:24:34.784Z,95300.00
2023-05-19T09:25:35.002Z,95298.00
2023-05-19T09:26:34.780Z,95296.00
2023-05-19T09:27:34.833Z,95298.00
2023-05-19T09:28:34.830Z,95294.00
2023-05-19T09:29:34.851Z,95292.00
2023-05-19T09:30:34.868Z,95292.00
2023-05-19T09:31:34.911Z,95288.00
2023-05-19T09:32:34.925Z,95286.00
2023-05-19T09:33:34.933Z,95286.00
2023-05-19T09:34:34.892Z,95282.00
2023-05-19T09:35:35.251Z,95282.00
2023-05-19T09:36:34.904Z,95282.00
2023-05-19T09:37:34.918Z,95284.00
2023-05-19T09:38:35.019Z,95282.00
2023-05-19T09:39:35.047Z,95274.00
2023-05-19T09:40:35.145Z,95274.00
2023-05-19T09:41:35.154Z,95272.00
2023-05-19T09:42:35.183Z,95272.00
2023-05-19T09:43:35.201Z,95272.00
2023-05-19T09:44:35.238Z,95269.00
2023-05-19T09:45:35.247Z,95269.00
2023-05-19T09:46:35.426Z,95272.00
2023-05-19T09:47:35.378Z,95270.00
2023-05-19T09:48:35.307Z,95274.00
2023-05-19T09:49:35.321Z,95267.00
2023-05-19T09:50:35.359Z,95263.00
2023-05-19T09:51:35.426Z,95263.00
2023-05-19T09:52:35.527Z,95255.00
2023-05-19T09:53:35.528Z,95255.00
2023-05-19T09:54:35.554Z,95251.00
2023-05-19T09:55:35.604Z,95255.00
2023-05-19T09:56:35.530Z,95253.00
2023-05-19T09:57:35.659Z,95251.00
2023-05-19T09:58:35.725Z,95255.00
2023-05-19T09:59:35.676Z,95247.00
2023-05-19T10:00:35.680Z,95247.00
2023-05-19T10:01:35.691Z,95247.00
2023-05-19T10:02:35.718Z,95245.00
2023-05-19T10:03:35.691Z,95239.00
2023-05-19T10:04:35.720Z,95239.00
2023-05-19T10:05:35.889Z,95235.00
2023-05-19T10:06:35.725Z,95235.00
2023-05-19T10:07:35.825Z,95229.00
2023-05-19T10:08:35.747Z,95227.00
2023-05-19T10:09:35.816Z,95227.00
2023-05-19T10:10:35.902Z,95223.00
2023-05-19T10:11:35.904Z,95221.00
2023-05-19T10:12:35.872Z,95219.00
2023-05-19T10:13:35.976Z,95221.00
2023-05-19T10:14:35.975Z,95219.00
2023-05-19T10:15:40.642Z,95215.00
2023-05-19T10:16:37.080Z,95215.00
2023-05-19T10:17:35.966Z,95214.00
2023-05-19T10:18:37.539Z,95214.00
2023-05-19T10:19:36.008Z,95214.00
2023-05-19T10:20:35.936Z,95208.00
2023-05-19T10:21:35.936Z,95212.00
2023-05-19T10:22:35.985Z,95210.00
2023-05-19T10:23:35.922Z,95208.00
2023-05-19T10:24:35.934Z,95208.00
2023-05-19T10:25:35.908Z,95210.00
2023-05-19T10:26:35.968Z,95210.00
2023-05-19T10:27:36.512Z,95206.00
2023-05-19T10:28:35.904Z,95212.00
2023-05-19T10:29:35.878Z,95204.00
2023-05-19T10:30:35.891Z,95200.00
2023-05-19T10:31:35.984Z,95200.00
2023-05-19T10:32:35.923Z,95200.00
2023-05-19T10:33:35.850Z,95194.00
2023-05-19T10:34:35.916Z,95194.00
2023-05-19T10:35:36.099Z,95190.00
2023-05-19T10:36:35.910Z,95186.00
2023-05-19T10:37:35.856Z,95190.00
2023-05-19T10:38:35.843Z,95186.00
2023-05-19T10:39:35.836Z,95186.00
2023-05-19T10:40:35.788Z,95184.00
2023-05-19T10:41:35.772Z,95184.00
2023-05-19T10:42:35.764Z,95184.00
2023-05-19T10:43:35.795Z,95182.00
2023-05-19T10:44:35.791Z,95184.00
2023-05-19T10:45:36.011Z,95180.00
2023-05-19T10:46:35.733Z,95186.00
2023-05-19T10:47:35.821Z,95190.00
2023-05-19T10:48:35.732Z,95178.00
2023-05-19T10:49:35.743Z,95176.00
2023-05-19T10:50:35.753Z,95176.00
2023-05-19T10:51:35.745Z,95174.00
2023-05-19T10:52:35.737Z,95170.00
2023-05-19T10:53:35.787Z,95172.00
2023-05-19T10:54:35.762Z,95174.00
2023-05-19T10:55:35.809Z,95174.00
2023-05-19T10:56:35.706Z,95172.00
2023-05-19T10:57:35.707Z,95161.00
2023-05-19T10:58:35.687Z,95159.00
2023-05-19T10:59:35.682Z,95155.00
2023-05-19T11:00:35.695Z,95157.00
2023-05-19T11:01:35.747Z,95155.00
2023-05-19T11:02:35.708Z,95157.00
2023-05-19T11:03:35.691Z,95155.00
2023-05-19T11:04:35.671Z,95151.00
2023-05-19T11:05:35.812Z,95153.00
2023-05-19T11:06:35.638Z,95149.00
2023-05-19T11:07:35.633Z,95151.00
2023-05-19T11:08:35.658Z,95153.00
2023-05-19T11:09:40.593Z,95153.00
2023-05-19T11:10:36.598Z,95151.00
2023-05-19T11:11:35.562Z,95151.00
2023-05-19T11:12:35.660Z,95143.00
2023-05-19T11:13:36.730Z,95149.00
2023-05-19T11:14:35.572Z,95145.00
2023-05-19T11:15:35.601Z,95147.00
2023-05-19T11:16:35.659Z,95149.00
2023-05-19T11:17:35.579Z,95147.00
2023-05-19T11:18:35.607Z,95145.00
2023-05-19T11:19:35.652Z,95147.00
2023-05-19T11:20:35.576Z,95145.00
2023-05-19T11:21:35.612Z,95143.00
2023-05-19T11:22:36.146Z,95151.00
2023-05-19T11:23:35.798Z,95145.00
2023-05-19T11:24:35.653Z,95139.00
2023-05-19T11:25:35.653Z,95139.00
2023-05-19T11:26:35.691Z,95139.00
2023-05-19T11:27:35.701Z,95135.00
2023-05-19T11:28:35.747Z,95129.00
2023-05-19T11:29:35.807Z,95131.00
2023-05-19T11:30:35.719Z,95133.00
2023-05-19T11:31:35.858Z,95125.00
2023-05-19T11:32:35.982Z,95127.00
2023-05-19T11:33:35.824Z,95127.00
2023-05-19T11:34:35.854Z,95120.00
2023-05-19T11:35:36.372Z,95122.00
2023-05-19T11:36:35.863Z,95123.00
2023-05-19T11:37:35.955Z,95120.00
2023-05-19T11:38:35.977Z,95118.00
2023-05-19T11:39:36.072Z,95118.00
2023-05-19T11:40:36.089Z,95114.00
2023-05-19T11:41:36.100Z,95116.00
2023-05-19T11:42:36.159Z,95114.00
2023-05-19T11:43:36.188Z,95112.00
2023-05-19T11:44:36.292Z,95110.00
2023-05-19T11:45:36.536Z,95106.00
2023-05-19T11:46:36.277Z,95100.00
2023-05-19T11:47:47.414Z,95098.00
2023-05-19T11:48:37.343Z,95102.00